createdAt,value
2022-12-20T00:00:55.531Z,101197.91
2022-12-20T00:03:22.349Z,101195.09
2022-12-20T00:05:49.163Z,101191.41
2022-12-20T00:08:16.259Z,101178.88
2022-12-20T00:10:44.700Z,101181.66
2022-12-20T00:13:13.721Z,101177.53
2022-12-20T00:15:40.856Z,101188.13
2022-12-20T00:18:07.723Z,101171.03
2022-12-20T00:20:35.455Z,101181.88
2022-12-20T00:23:02.320Z,101174.88
2022-12-20T00:25:29.174Z,101173.03
2022-12-20T00:27:56.209Z,101164.09
2022-12-20T00:30:24.325Z,101178.66
2022-12-20T00:32:51.387Z,101168.06
2022-12-20T00:35:18.219Z,101159.16
2022-12-20T00:37:45.461Z,101170.72
2022-12-20T00:40:12.417Z,101149.97
2022-12-20T00:42:39.225Z,101155.28
2022-12-20T00:45:06.889Z,101157.56
2022-12-20T00:47:35.355Z,101152.81
2022-12-20T00:50:02.117Z,101153.50
2022-12-20T00:52:28.936Z,101148.56
2022-12-20T00:54:55.867Z,101147.88
2022-12-20T00:57:22.840Z,101143.78
2022-12-20T00:59:49.671Z,101141.81
2022-12-20T01:02:16.456Z,101129.41
2022-12-20T01:04:44.821Z,101138.13
2022-12-20T01:07:11.602Z,101139.16
2022-12-20T01:09:38.459Z,101131.28
2022-12-20T01:12:05.506Z,101146.34
2022-12-20T01:14:32.235Z,101147.19
2022-12-20T01:16:59.840Z,101139.72
2022-12-20T01:19:26.674Z,101136.63
2022-12-20T01:21:55.021Z,101144.59
2022-12-20T01:24:21.787Z,101150.81
2022-12-20T01:26:48.631Z,101143.84
2022-12-20T01:29:15.583Z,101123.06
2022-12-20T01:31:42.867Z,101133.91
2022-12-20T01:34:10.598Z,101136.44
2022-12-20T01:36:38.578Z,101137.50
2022-12-20T01:39:09.979Z,101128.59
2022-12-20T01:41:38.069Z,101122.50
2022-12-20T01:44:26.403Z,101121.56
2022-12-20T01:46:54.140Z,101127.25
2022-12-20T01:49:24.401Z,101117.75
2022-12-20T01:52:00.358Z,101125.69
2022-12-20T01:54:32.569Z,101126.91
2022-12-20T01:57:04.326Z,101128.78
2022-12-20T01:59:35.936Z,101122.66
2022-12-20T02:02:07.224Z,101114.25
2022-12-20T02:04:34.349Z,101108.06
2022-12-20T02:07:03.500Z,101100.41
2022-12-20T02:09:34.093Z,101102.72
2022-12-20T02:12:09.639Z,101102.28
2022-12-20T02:14:51.380Z,101099.91
2022-12-20T02:17:26.459Z,101092.81
2022-12-20T02:20:28.688Z,101097.00
2022-12-20T02:23:21.092Z,101097.41
2022-12-20T02:26:04.774Z,101086.41
2022-12-20T02:28:53.243Z,101090.94
2022-12-20T02:31:30.344Z,101098.03
2022-12-20T02:33:59.616Z,101095.38
2022-12-20T02:36:26.791Z,101109.22
2022-12-20T02:38:54.172Z,101100.16
2022-12-20T02:41:27.127Z,101109.47
2022-12-20T02:44:16.467Z,101104.16
2022-12-20T02:46:47.442Z,101104.53
2022-12-20T02:49:18.566Z,101094.78
2022-12-20T02:51:48.545Z,101095.44
2022-12-20T02:54:16.912Z,101093.22
2022-12-20T02:56:52.498Z,101085.25
2022-12-20T02:59:22.280Z,101100.06
2022-12-20T03:01:53.920Z,101093.22
2022-12-20T03:04:26.534Z,101092.09
2022-12-20T03:06:59.641Z,101085.00
2022-12-20T03:09:26.714Z,101095.19
2022-12-20T03:11:54.589Z,101086.19
2022-12-20T03:14:21.907Z,101086.69
2022-12-20T03:16:52.349Z,101078.47
2022-12-20T03:19:19.718Z,101086.16
2022-12-20T03:21:47.108Z,101062.19
2022-12-20T03:24:14.673Z,101078.41
2022-12-20T03:26:42.051Z,101087.47
2022-12-20T03:29:09.391Z,101075.00
2022-12-20T03:31:37.069Z,101081.16
2022-12-20T03:34:06.045Z,101067.78
2022-12-20T03:36:34.705Z,101071.56
2022-12-20T03:39:04.327Z,101078.03
2022-12-20T03:41:35.259Z,101079.75
2022-12-20T03:44:02.584Z,101076.91
2022-12-20T03:46:30.498Z,101060.25
2022-12-20T03:48:57.992Z,101074.06
2022-12-20T03:51:26.683Z,101061.47
2022-12-20T03:53:53.622Z,101075.78
2022-12-20T03:56:23.468Z,101072.09
2022-12-20T03:58:51.154Z,101060.06
2022-12-20T04:01:20.126Z,101071.34
2022-12-20T04:03:47.867Z,101058.16
2022-12-20T04:06:15.226Z,101056.09
2022-12-20T04:08:43.613Z,101054.00
2022-12-20T04:11:18.438Z,101068.78
2022-12-20T04:13:53.929Z,101058.06
2022-12-20T04:16:23.077Z,101060.84
2022-12-20T04:18:50.211Z,101059.13
2022-12-20T04:21:22.513Z,101058.19
2022-12-20T04:23:51.089Z,101048.31
2022-12-20T04:26:18.417Z,101041.59
2022-12-20T04:28:46.237Z,101045.78
2022-12-20T04:31:17.216Z,101041.59
2022-12-20T04:33:48.744Z,101030.31
2022-12-20T04:36:15.947Z,101029.56
2022-12-20T04:38:44.048Z,101024.59
2022-12-20T04:41:22.864Z,101025.56
2022-12-20T04:43:57.526Z,101007.19
2022-12-20T04:46:30.323Z,101025.56
2022-12-20T04:48:59.935Z,101023.28
2022-12-20T04:51:28.612Z,101022.44
2022-12-20T04:53:55.861Z,101020.63
2022-12-20T04:56:36.085Z,101016.81
2022-12-20T04:59:08.937Z,101006.41
2022-12-20T05:01:36.484Z,101001.88
2022-12-20T05:04:03.986Z,101012.31
2022-12-20T05:06:35.061Z,101000.09
2022-12-20T05:09:01.917Z,101000.44
2022-12-20T05:11:29.365Z,100987.16
2022-12-20T05:13:58.408Z,100992.94
2022-12-20T05:16:26.070Z,100992.13
2022-12-20T05:18:53.378Z,100990.78
2022-12-20T05:21:39.628Z,100993.16
2022-12-20T05:24:38.387Z,100996.47
2022-12-20T05:27:37.260Z,101005.84
2022-12-20T05:30:07.779Z,100994.19
2022-12-20T05:32:34.883Z,100997.41
2022-12-20T05:35:01.678Z,101004.53
2022-12-20T05:37:29.708Z,100987.28
2022-12-20T05:40:04.711Z,100981.03
2022-12-20T05:42:32.657Z,100990.00
2022-12-20T05:45:00.940Z,100991.06
2022-12-20T05:47:33.879Z,100985.09
2022-12-20T05:50:12.354Z,100985.00
2022-12-20T05:53:10.963Z,100982.16
2022-12-20T05:55:44.317Z,100972.59
2022-12-20T05:58:13.704Z,100968.31
2022-12-20T06:00:50.536Z,100972.31
2022-12-20T06:03:19.296Z,100977.50
2022-12-20T06:05:46.607Z,100973.81
2022-12-20T06:08:18.358Z,100972.31
2022-12-20T06:10:45.176Z,100968.16
2022-12-20T06:13:14.637Z,100971.84
2022-12-20T06:15:41.561Z,100974.66
2022-12-20T06:18:08.775Z,100972.00
2022-12-20T06:20:37.671Z,100957.13
2022-12-20T06:23:05.831Z,100957.13
2022-12-20T06:25:40.422Z,100959.03
2022-12-20T06:28:07.782Z,100945.66
2022-12-20T06:30:35.086Z,100961.59
2022-12-20T06:33:07.249Z,100962.38
2022-12-20T06:35:34.557Z,100970.03
2022-12-20T06:38:02.738Z,100964.63
2022-12-20T06:40:33.063Z,100977.63
2022-12-20T06:43:01.362Z,100963.97
2022-12-20T06:45:28.771Z,100979.97
2022-12-20T06:47:57.642Z,100971.75
2022-12-20T06:50:25.617Z,100968.41
2022-12-20T06:52:52.444Z,100970.22
2022-12-20T06:55:20.624Z,100972.13
2022-12-20T06:57:47.561Z,100964.81
2022-12-20T07:00:17.540Z,100965.00
2022-12-20T07:02:45.673Z,100962.44
2022-12-20T07:05:12.685Z,100953.63
2022-12-20T07:07:44.807Z,100959.31
2022-12-20T07:10:12.478Z,100958.28
2022-12-20T07:12:47.450Z,100961.22
2022-12-20T07:15:15.409Z,100956.88
2022-12-20T07:17:42.232Z,100952.69
2022-12-20T07:20:13.754Z,100939.88
2022-12-20T07:22:41.427Z,100958.28
2022-12-20T07:25:08.618Z,100961.31
2022-12-20T07:27:35.993Z,100962.09
2022-12-20T07:30:06.391Z,100959.03
2022-12-20T07:32:33.606Z,100954.69
2022-12-20T07:35:01.594Z,100959.31
2022-12-20T07:37:28.751Z,100960.09
2022-12-20T07:39:55.435Z,100955.47
2022-12-20T07:42:22.413Z,100960.00
2022-12-20T07:44:50.674Z,100964.06
2022-12-20T07:47:19.054Z,100955.81
2022-12-20T07:49:46.065Z,100949.44
2022-12-20T07:52:14.894Z,100955.63
2022-12-20T07:54:46.054Z,100944.81
2022-12-20T07:57:18.054Z,100952.00
2022-12-20T07:59:49.172Z,100935.91
2022-12-20T08:02:22.169Z,100939.09
2022-12-20T08:04:50.794Z,100938.03
2022-12-20T08:07:17.714Z,100941.34
2022-12-20T08:09:45.664Z,100936.63
2022-12-20T08:12:15.860Z,100930.91
2022-12-20T08:14:43.119Z,100931.78
2022-12-20T08:17:11.304Z,100929.41
2022-12-20T08:19:39.522Z,100931.38
2022-12-20T08:22:06.369Z,100941.78
2022-12-20T08:24:33.630Z,100930.03
2022-12-20T08:27:00.425Z,100941.59
2022-12-20T08:29:27.514Z,100942.44
2022-12-20T08:31:54.392Z,100932.16
2022-12-20T08:34:21.469Z,100942.69
2022-12-20T08:36:49.643Z,100941.53
2022-12-20T08:39:16.718Z,100940.16
2022-12-20T08:41:43.545Z,100940.28
2022-12-20T08:44:10.952Z,100930.41
2022-12-20T08:46:38.351Z,100942.03
2022-12-20T08:49:05.878Z,100943.19
2022-12-20T08:51:33.139Z,100942.34
2022-12-20T08:54:02.795Z,100949.44
2022-12-20T08:56:29.698Z,100939.13
2022-12-20T08:58:56.836Z,100939.50
2022-12-20T09:01:24.058Z,100938.88
2022-12-20T09:03:51.009Z,100940.38
2022-12-20T09:06:20.141Z,100932.53
2022-12-20T09:08:48.085Z,100919.25
2022-12-20T09:11:19.049Z,100924.13
2022-12-20T09:13:49.663Z,100914.03
2022-12-20T09:16:19.041Z,100921.59
2022-12-20T09:18:49.087Z,100912.59
2022-12-20T09:21:15.992Z,100926.19
2022-12-20T09:23:42.811Z,100926.81
2022-12-20T09:26:12.090Z,100920.44
2022-12-20T09:28:40.907Z,100927.56
2022-12-20T09:31:11.554Z,100925.78
2022-12-20T09:33:38.591Z,100916.72
2022-12-20T09:36:06.057Z,100923.66
2022-12-20T09:38:33.406Z,100918.34
2022-12-20T09:41:03.812Z,100909.09
2022-12-20T09:43:32.615Z,100911.41
2022-12-20T09:46:02.713Z,100925.78
2022-12-20T09:48:33.398Z,100927.59
2022-12-20T09:51:17.277Z,100924.94
2022-12-20T09:53:56.466Z,100915.16
2022-12-20T09:56:28.267Z,100926.66
2022-12-20T09:59:00.907Z,100914.13
2022-12-20T10:01:37.960Z,100914.22
2022-12-20T10:04:07.887Z,100933.56
2022-12-20T10:06:48.913Z,100924.34
2022-12-20T10:09:34.397Z,100906.91
2022-12-20T10:12:09.600Z,100912.88
2022-12-20T10:14:49.028Z,100913.94
2022-12-20T10:17:32.197Z,100909.34
2022-12-20T10:20:24.421Z,100922.16
2022-12-20T10:22:57.668Z,100908.19
2022-12-20T10:25:30.323Z,100921.47
2022-12-20T10:27:58.329Z,100912.75
2022-12-20T10:30:27.121Z,100919.13
2022-12-20T10:32:57.906Z,100927.88
2022-12-20T10:35:29.078Z,100927.22
2022-12-20T10:38:09.587Z,100917.31
2022-12-20T10:41:18.675Z,100912.88
2022-12-20T10:43:26.747Z,100919.03
2022-12-20T10:45:59.036Z,100912.34
2022-12-20T10:48:30.700Z,100919.91
2022-12-20T10:51:00.129Z,100921.78
2022-12-20T10:53:28.827Z,100916.69
2022-12-20T10:56:12.859Z,100921.69
2022-12-20T10:58:40.072Z,100928.69
2022-12-20T11:01:13.721Z,100918.72
2022-12-20T11:03:54.389Z,100907.34
2022-12-20T11:06:24.197Z,100919.38
2022-12-20T11:08:57.031Z,100907.34
2022-12-20T11:11:27.659Z,100916.69
2022-12-20T11:13:54.633Z,100916.69
2022-12-20T11:16:35.932Z,100904.75
2022-12-20T11:19:24.610Z,100913.38
2022-12-20T11:21:59.715Z,100916.03
2022-12-20T11:24:35.925Z,100909.44
2022-12-20T11:27:20.207Z,100908.81
2022-12-20T11:30:03.015Z,100906.03
2022-12-20T11:32:48.430Z,100910.28
2022-12-20T11:35:19.822Z,100903.81
2022-12-20T11:37:56.257Z,100894.97
2022-12-20T11:40:32.544Z,100901.72
2022-12-20T11:43:48.076Z,100900.72
2022-12-20T11:46:33.978Z,100900.50
2022-12-20T11:49:22.810Z,100907.53
2022-12-20T11:52:02.487Z,100894.88
2022-12-20T11:54:33.194Z,100899.34
2022-12-20T11:57:05.481Z,100890.66
2022-12-20T11:59:40.587Z,100896.50
2022-12-20T12:02:12.872Z,100892.06
2022-12-20T12:04:44.904Z,100895.44
2022-12-20T12:07:19.358Z,100889.09
2022-12-20T12:09:55.467Z,100890.03
2022-12-20T12:12:26.833Z,100888.03
2022-12-20T12:15:00.881Z,100880.78
2022-12-20T12:17:37.985Z,100892.19
2022-12-20T12:20:22.491Z,100888.66
2022-12-20T12:22:57.960Z,100882.69
2022-12-20T12:25:24.930Z,100882.28
2022-12-20T12:27:51.840Z,100867.44
2022-12-20T12:30:18.946Z,100884.28
2022-12-20T12:32:54.207Z,100896.63
2022-12-20T12:35:45.857Z,100897.81
2022-12-20T12:38:31.304Z,100893.84
2022-12-20T12:41:22.539Z,100891.53
2022-12-20T12:43:52.281Z,100889.09
2022-12-20T12:46:24.975Z,100901.31
2022-12-20T12:48:57.766Z,100892.78
2022-12-20T12:51:29.502Z,100894.81
2022-12-20T12:54:16.794Z,100889.47
2022-12-20T12:56:46.648Z,100881.91
2022-12-20T12:59:51.305Z,100888.22
2022-12-20T13:02:51.329Z,100903.34
2022-12-20T13:05:35.906Z,100891.41
2022-12-20T13:08:04.877Z,100861.94
2022-12-20T13:10:59.456Z,100893.34
2022-12-20T13:13:26.514Z,100892.91
2022-12-20T13:16:12.619Z,100886.69
2022-12-20T13:19:10.980Z,100896.72
2022-12-20T13:21:38.633Z,100897.13
2022-12-20T13:24:53.401Z,100894.25
2022-12-20T13:27:30.896Z,100897.47
2022-12-20T13:30:27.561Z,100897.09
2022-12-20T13:33:26.230Z,100903.91
2022-12-20T13:36:30.227Z,100901.81
2022-12-20T13:39:00.324Z,100901.47
2022-12-20T13:41:40.012Z,100895.66
2022-12-20T13:44:36.262Z,100892.84
2022-12-20T13:47:37.045Z,100900.84
2022-12-20T13:50:40.496Z,100909.06
2022-12-20T13:53:17.379Z,100902.22
2022-12-20T13:55:45.295Z,100903.72
2022-12-20T13:58:16.240Z,100915.88
2022-12-20T14:00:45.672Z,100912.38
2022-12-20T14:03:25.185Z,100900.34
2022-12-20T14:05:57.738Z,100906.94
2022-12-20T14:08:29.918Z,100913.09
2022-12-20T14:11:08.231Z,100904.19
2022-12-20T14:13:35.653Z,100908.13
2022-12-20T14:16:13.405Z,100910.44
2022-12-20T14:18:40.879Z,100906.41
2022-12-20T14:21:10.278Z,100914.63
2022-12-20T14:23:40.273Z,100912.81
2022-12-20T14:26:11.544Z,100916.63
2022-12-20T14:28:40.886Z,100916.53
2022-12-20T14:31:24.392Z,100909.50
2022-12-20T14:33:52.400Z,100923.66
2022-12-20T14:36:21.265Z,100936.31
2022-12-20T14:38:52.080Z,100930.03
2022-12-20T14:41:31.806Z,100936.63
2022-12-20T14:44:02.290Z,100928.78
2022-12-20T14:46:31.657Z,100924.59
2022-12-20T14:49:22.626Z,100928.44
2022-12-20T14:51:50.223Z,100924.56
2022-12-20T14:54:39.910Z,100939.22
2022-12-20T14:57:11.383Z,100929.88
2022-12-20T14:59:38.219Z,100940.88
2022-12-20T15:02:33.307Z,100939.00
2022-12-20T15:05:01.412Z,100941.41
2022-12-20T15:07:32.224Z,100941.72
2022-12-20T15:09:59.084Z,100943.84
2022-12-20T15:12:25.923Z,100942.88
2022-12-20T15:14:52.714Z,100935.88
2022-12-20T15:17:19.438Z,100938.41
2022-12-20T15:19:47.557Z,100933.94
2022-12-20T15:22:16.841Z,100929.56
2022-12-20T15:24:43.716Z,100930.56
2022-12-20T15:27:13.588Z,100935.00
2022-12-20T15:29:40.423Z,100937.97
2022-12-20T15:32:15.910Z,100933.22
2022-12-20T15:34:42.745Z,100935.53
2022-12-20T15:37:18.313Z,100945.34
2022-12-20T15:39:46.440Z,100943.63
2022-12-20T15:42:17.391Z,100944.03
2022-12-20T15:44:45.100Z,100946.69
2022-12-20T15:47:13.460Z,100942.53
2022-12-20T15:49:44.727Z,100937.22
2022-12-20T15:52:21.188Z,100947.13
2022-12-20T15:54:48.428Z,100943.47
2022-12-20T15:57:15.840Z,100946.34
2022-12-20T16:00:00.623Z,100952.06
2022-12-20T16:02:30.085Z,100957.38
2022-12-20T16:04:57.807Z,100950.00
2022-12-20T16:07:28.173Z,100957.97
2022-12-20T16:09:55.377Z,100952.66
2022-12-20T16:12:25.717Z,100959.25
2022-12-20T16:14:52.655Z,100953.81
2022-12-20T16:17:19.409Z,100957.59
2022-12-20T16:19:46.781Z,100961.44
2022-12-20T16:22:16.438Z,100953.47
2022-12-20T16:24:44.377Z,100955.56
2022-12-20T16:27:11.139Z,100957.47
2022-12-20T16:29:38.000Z,100956.69
2022-12-20T16:32:13.035Z,100960.22
2022-12-20T16:34:40.820Z,100963.91
2022-12-20T16:37:12.178Z,100959.66
2022-12-20T16:39:39.147Z,100963.38
2022-12-20T16:42:13.135Z,100961.66
2022-12-20T16:44:42.850Z,100959.41
2022-12-20T16:47:10.168Z,100969.16
2022-12-20T16:49:37.232Z,100969.91
2022-12-20T16:52:06.571Z,100974.34
2022-12-20T16:54:33.865Z,100982.25
2022-12-20T16:57:01.776Z,100977.97
2022-12-20T16:59:29.968Z,100992.19
2022-12-20T17:01:57.626Z,100979.03
2022-12-20T17:04:26.912Z,100983.50
2022-12-20T17:06:53.819Z,100983.50
2022-12-20T17:09:20.561Z,100986.13
2022-12-20T17:11:49.915Z,100982.56
2022-12-20T17:14:18.291Z,100988.59
2022-12-20T17:16:46.550Z,100981.78
2022-12-20T17:19:13.952Z,100988.13
2022-12-20T17:24:29.476Z,100994.56
2022-12-20T17:26:56.268Z,101008.69
2022-12-20T17:29:23.118Z,101006.81
2022-12-20T17:31:51.602Z,101011.28
2022-12-20T17:34:20.334Z,101007.75
2022-12-20T17:36:48.833Z,101009.00
2022-12-20T17:39:15.786Z,101008.69
2022-12-20T17:41:44.024Z,101015.59
2022-12-20T17:44:18.114Z,101008.88
2022-12-20T17:46:45.168Z,101014.31
2022-12-20T17:49:13.474Z,101017.91
2022-12-20T17:51:40.391Z,101008.53
2022-12-20T17:54:13.851Z,101020.63
2022-12-20T17:56:40.641Z,101026.31
2022-12-20T17:59:09.542Z,101025.47
2022-12-20T18:01:36.655Z,101018.53
2022-12-20T18:04:07.366Z,101020.63
2022-12-20T18:06:40.185Z,101023.56
2022-12-20T18:09:14.749Z,101024.59
2022-12-20T18:11:42.074Z,101026.59
2022-12-20T18:14:08.833Z,101011.41
2022-12-20T18:16:35.774Z,101025.88
2022-12-20T18:19:02.920Z,101012.78
2022-12-20T18:21:29.719Z,101018.22
2022-12-20T18:23:58.538Z,101017.69
2022-12-20T18:26:28.394Z,101020.69
2022-12-20T18:28:56.739Z,101017.63
2022-12-20T18:31:26.704Z,101014.59
2022-12-20T18:33:59.068Z,101039.56
2022-12-20T18:36:27.505Z,101045.22
2022-12-20T18:38:54.998Z,101037.25
2022-12-20T18:41:25.488Z,101037.63
2022-12-20T18:43:56.449Z,101022.50
2022-12-20T18:46:24.082Z,101040.94
2022-12-20T18:48:53.151Z,101041.97
2022-12-20T18:51:21.787Z,101044.13
2022-12-20T18:53:50.641Z,101049.75
2022-12-20T18:56:20.128Z,101052.59
2022-12-20T18:58:48.700Z,101048.38
2022-12-20T19:01:18.113Z,101026.44
2022-12-20T19:03:45.900Z,101030.03
2022-12-20T19:06:13.031Z,101014.38
2022-12-20T19:08:41.196Z,101024.91
2022-12-20T19:11:10.655Z,101023.28
2022-12-20T19:13:37.957Z,101019.69
2022-12-20T19:16:08.350Z,101027.63
2022-12-20T19:18:35.271Z,101029.50
2022-12-20T19:21:07.708Z,101032.09
2022-12-20T19:23:34.955Z,101032.09
2022-12-20T19:26:05.320Z,101028.81
2022-12-20T19:28:33.348Z,101036.00
2022-12-20T19:31:08.099Z,101031.75
2022-12-20T19:33:36.773Z,101036.34
2022-12-20T19:36:08.773Z,101030.44
2022-12-20T19:38:35.679Z,101037.34
2022-12-20T19:41:02.451Z,101036.59
2022-12-20T19:43:29.634Z,101034.81
2022-12-20T19:45:56.869Z,101042.00
2022-12-20T19:48:25.596Z,101040.44
2022-12-20T19:51:01.343Z,101037.00
2022-12-20T19:53:28.220Z,101036.00
2022-12-20T19:55:55.401Z,101035.91
2022-12-20T19:58:22.843Z,101043.09
2022-12-20T20:00:50.853Z,101049.06
2022-12-20T20:03:18.573Z,101050.00
2022-12-20T20:05:47.266Z,101043.94
2022-12-20T20:08:15.517Z,101055.34
2022-12-20T20:10:43.090Z,101045.72
2022-12-20T20:13:09.948Z,101057.25
2022-12-20T20:15:36.920Z,101054.75
2022-12-20T20:18:04.326Z,101059.19
2022-12-20T20:20:31.684Z,101053.16
2022-12-20T20:23:01.305Z,101059.38
2022-12-20T20:25:28.095Z,101054.31
2022-12-20T20:27:55.042Z,101051.75
2022-12-20T20:30:21.793Z,101065.56
2022-12-20T20:32:48.630Z,101077.72
2022-12-20T20:35:15.781Z,101076.03
2022-12-20T20:37:42.893Z,101050.38
2022-12-20T20:40:13.420Z,101049.44
2022-12-20T20:42:40.246Z,101062.22
2022-12-20T20:45:08.547Z,101062.06
2022-12-20T20:47:35.465Z,101073.34
2022-12-20T20:50:03.041Z,101066.50
2022-12-20T20:52:29.920Z,101071.63
2022-12-20T20:54:56.774Z,101068.44
2022-12-20T20:57:25.316Z,101068.97
2022-12-20T20:59:52.288Z,101064.06
2022-12-20T21:02:21.400Z,101057.59
2022-12-20T21:05:16.615Z,101056.72
2022-12-20T21:07:35.880Z,101076.31
2022-12-20T21:10:03.077Z,101087.16
2022-12-20T21:12:31.409Z,101103.25
2022-12-20T21:15:22.431Z,101104.34
2022-12-20T21:17:45.681Z,101109.03
2022-12-20T21:20:13.253Z,101104.09
2022-12-20T21:22:40.044Z,101097.34
2022-12-20T21:25:08.265Z,101094.94
2022-12-20T21:27:36.993Z,101091.47
2022-12-20T21:30:05.650Z,101092.44
2022-12-20T21:32:32.476Z,101090.03
2022-12-20T21:34:59.573Z,101081.31
2022-12-20T21:37:29.207Z,101087.31
2022-12-20T21:39:55.970Z,101069.66
2022-12-20T21:42:22.789Z,101066.16
2022-12-20T21:44:51.051Z,101069.06
2022-12-20T21:47:17.900Z,101075.72
2022-12-20T21:49:44.900Z,101079.91
2022-12-20T21:52:11.995Z,101088.00
2022-12-20T21:54:38.802Z,101081.50
2022-12-20T21:57:05.597Z,101084.00
2022-12-20T21:59:32.402Z,101091.50
2022-12-20T22:02:00.818Z,101080.66
2022-12-20T22:04:27.842Z,101081.72
2022-12-20T22:06:54.620Z,101085.53
2022-12-20T22:09:21.445Z,101095.50
2022-12-20T22:11:51.496Z,101089.34
2022-12-20T22:14:18.423Z,101087.66
2022-12-20T22:16:45.317Z,101095.22
2022-12-20T22:19:14.913Z,101094.38
2022-12-20T22:21:41.972Z,101092.81
2022-12-20T22:24:09.073Z,101092.28
2022-12-20T22:26:37.005Z,101089.66
2022-12-20T22:29:05.912Z,101089.78
2022-12-20T22:31:33.719Z,101092.81
2022-12-20T22:34:00.823Z,101095.66
2022-12-20T22:36:29.199Z,101105.91
2022-12-20T22:38:57.529Z,101100.94
2022-12-20T22:41:26.756Z,101093.00
2022-12-20T22:43:54.403Z,101093.78
2022-12-20T22:46:30.527Z,101091.00
2022-12-20T22:48:57.675Z,101107.41
2022-12-20T22:51:27.140Z,101101.16
2022-12-20T22:53:58.023Z,101109.47
2022-12-20T22:56:24.850Z,101107.94
2022-12-20T22:58:51.709Z,101106.50
2022-12-20T23:01:20.953Z,101107.75
2022-12-20T23:03:48.458Z,101104.66
2022-12-20T23:06:17.651Z,101103.31
2022-12-20T23:08:45.123Z,101110.22
2022-12-20T23:11:36.326Z,101106.38
2022-12-20T23:14:22.600Z,101100.34
2022-12-20T23:16:49.598Z,101116.59
2022-12-20T23:19:16.517Z,101108.75
2022-12-20T23:22:01.850Z,101105.75
2022-12-20T23:24:28.705Z,101102.59
2022-12-20T23:26:56.916Z,101116.53
2022-12-20T23:29:23.880Z,101110.50
2022-12-20T23:31:50.996Z,101112.41
2022-12-20T23:34:17.905Z,101117.09
2022-12-20T23:36:44.738Z,101105.09
2022-12-20T23:39:11.635Z,101119.94
2022-12-20T23:41:38.481Z,101119.88
2022-12-20T23:44:07.315Z,101131.31
2022-12-20T23:46:34.523Z,101126.31
2022-12-20T23:49:01.358Z,101126.47
2022-12-20T23:51:28.173Z,101130.28
2022-12-20T23:53:54.947Z,101127.03
2022-12-20T23:56:22.659Z,101111.72
2022-12-20T23:58:53.705Z,101127.06
